Time;durP1;ratioP1;P1;durP2;ratioP2;P2;SDS_P1;SDS_P2;PMS_P1;PMS_P2;Temp;Humidity;BMP_temperature;BMP_pressure;BME280_temperature;BME280_humidity;BME280_pressure;Samples;Min_cycle;Max_cycle;Signal;HPM_P1;HPM_P2
2023/07/01 00:02:14;;;;;;;6.30;5.90;;;;;;;20.32;97.10;98217.24;109611;1254;72527;-78
2023/07/01 00:04:43;;;;;;;9.10;6.40;;;;;;;20.27;97.54;98212.55;109512;1254;59018;-79
2023/07/01 00:07:09;;;;;;;6.80;6.20;;;;;;;20.22;98.06;98210.26;109482;1253;59003;-78
2023/07/01 00:09:36;;;;;;;7.60;6.80;;;;;;;20.17;98.53;98203.14;109551;1254;59307;-78
2023/07/01 00:12:03;;;;;;;7.90;6.30;;;;;;;20.15;99.42;98202.66;109530;1252;58899;-78
2023/07/01 00:14:29;;;;;;;7.20;6.50;;;;;;;20.13;100.00;98201.79;109267;1254;62504;-77
2023/07/01 00:16:56;;;;;;;7.80;7.10;;;;;;;20.10;100.00;98201.48;109526;1252;59086;-78
2023/07/01 00:19:22;;;;;;;9.00;8.30;;;;;;;20.06;100.00;98197.83;109264;1253;59046;-76
2023/07/01 00:21:49;;;;;;;8.60;7.90;;;;;;;20.02;100.00;98196.48;109488;1254;59298;-77
2023/07/01 00:24:15;;;;;;;8.20;7.40;;;;;;;19.99;100.00;98195.43;109476;1253;59255;-77
2023/07/01 00:26:41;;;;;;;8.20;7.50;;;;;;;19.98;100.00;98195.20;109487;1253;59044;-77
2023/07/01 00:29:08;;;;;;;9.50;8.60;;;;;;;19.98;100.00;98195.31;109446;1253;59159;-78
2023/07/01 00:31:34;;;;;;;9.30;8.50;;;;;;;19.98;100.00;98195.20;109456;1254;59067;-78
2023/07/01 00:34:01;;;;;;;9.10;8.30;;;;;;;19.94;100.00;98193.90;109542;1254;59733;-78
2023/07/01 00:36:27;;;;;;;10.60;9.50;;;;;;;19.93;100.00;98190.66;109548;1252;59064;-77
2023/07/01 00:38:54;;;;;;;10.30;9.30;;;;;;;19.90;100.00;98186.10;109520;1253;59009;-77
2023/07/01 00:41:21;;;;;;;10.80;9.70;;;;;;;19.89;100.00;98186.91;109516;1252;58963;-76
2023/07/01 00:43:47;;;;;;;10.90;9.50;;;;;;;19.85;100.00;98181.84;109464;1252;59022;-76
2023/07/01 00:46:16;;;;;;;10.70;9.70;;;;;;;19.80;100.00;98177.27;109488;1252;64935;-77
2023/07/01 00:48:43;;;;;;;11.30;10.20;;;;;;;19.76;100.00;98175.95;109508;1254;59270;-77
2023/07/01 00:51:10;;;;;;;10.80;9.80;;;;;;;19.72;100.00;98173.51;109487;1254;62840;-78
2023/07/01 00:53:39;;;;;;;10.70;9.90;;;;;;;19.68;100.00;98179.39;109388;1253;58950;-77
2023/07/01 00:56:06;;;;;;;10.60;9.60;;;;;;;19.62;100.00;98179.83;109471;1253;59234;-78
2023/07/01 00:58:34;;;;;;;11.40;10.30;;;;;;;19.56;100.00;98181.10;109201;1253;66043;-77
2023/07/01 01:01:07;;;;;;;10.80;9.80;;;;;;;19.51;100.00;98183.20;109453;1254;60009;-78
2023/07/01 01:03:47;;;;;;;12.80;11.50;;;;;;;19.42;100.00;98185.81;109461;1252;63755;-77
2023/07/01 01:06:19;;;;;;;;;;;;;;;19.33;100.00;98179.15;109397;1253;58961;-77
2023/07/01 01:09:03;;;;;;;13.00;11.80;;;;;;;19.26;100.00;98172.88;109502;1253;58901;-77
2023/07/01 01:11:32;;;;;;;12.90;11.70;;;;;;;19.26;100.00;98172.41;109489;1253;66025;-77
2023/07/01 01:14:02;;;;;;;14.00;12.70;;;;;;;19.26;100.00;98167.81;109437;1253;60146;-77
2023/07/01 01:16:28;;;;;;;;;;;;;;;19.27;100.00;98167.40;109447;1253;64059;-77
2023/07/01 01:18:58;;;;;;;13.40;12.30;;;;;;;19.24;100.00;98168.23;109420;1252;59033;-77
2023/07/01 01:21:26;;;;;;;14.00;12.80;;;;;;;19.20;100.00;98163.86;109463;1252;59194;-77
2023/07/01 01:24:03;;;;;;;13.80;12.60;;;;;;;19.17;100.00;98162.05;109398;1254;64811;-77
2023/07/01 01:26:39;;;;;;;15.90;14.40;;;;;;;19.17;100.00;98158.95;109486;1254;59994;-78
2023/07/01 01:29:06;;;;;;;13.90;12.50;;;;;;;19.20;100.00;98159.00;109310;1254;64145;-77
2023/07/01 01:31:33;;;;;;;13.30;12.10;;;;;;;19.21;100.00;98163.25;109476;1252;59020;-76
2023/07/01 01:33:59;;;;;;;15.80;14.30;;;;;;;19.20;100.00;98159.04;109411;1253;58995;-78
2023/07/01 01:36:45;;;;;;;14.60;13.30;;;;;;;19.21;100.00;98162.17;109475;1252;65864;-77
2023/07/01 01:39:17;;;;;;;12.80;11.60;;;;;;;19.20;100.00;98161.58;109469;1254;60305;-78
2023/07/01 01:42:07;;;;;;;12.50;11.10;;;;;;;19.18;100.00;98155.30;109270;1253;63761;-77
2023/07/01 01:44:47;;;;;;;14.30;11.60;;;;;;;19.17;100.00;98149.09;109425;1253;58958;-77
2023/07/01 01:47:17;;;;;;;13.80;12.50;;;;;;;19.17;100.00;98142.58;109492;1254;59007;-77
2023/07/01 01:49:45;;;;;;;14.00;11.50;;;;;;;19.18;100.00;98134.98;109486;1254;66191;-77
2023/07/01 01:52:15;;;;;;;14.30;12.10;;;;;;;19.15;100.00;98135.97;109424;1253;61776;-77
2023/07/01 01:54:46;;;;;;;13.40;10.90;;;;;;;19.14;100.00;98135.59;109521;1252;65311;-77
2023/07/01 01:57:13;;;;;;;12.40;10.80;;;;;;;19.12;100.00;98133.45;109452;1253;58956;-77
2023/07/01 01:59:43;;;;;;;15.90;11.70;;;;;;;19.09;100.00;98126.29;109330;1252;59014;-77
2023/07/01 02:02:09;;;;;;;14.00;12.00;;;;;;;19.01;100.00;98118.13;109469;1253;66110;-77
2023/07/01 02:04:36;;;;;;;14.50;12.00;;;;;;;18.95;100.00;98114.02;109160;1253;60681;-77
2023/07/01 02:07:03;;;;;;;14.20;11.90;;;;;;;18.89;100.00;98112.90;109431;1252;62786;-77
2023/07/01 02:09:30;;;;;;;15.00;12.00;;;;;;;18.84;100.00;98111.85;109407;1253;59378;-77
2023/07/01 02:11:57;;;;;;;14.40;11.30;;;;;;;18.83;100.00;98110.18;109415;1252;59051;-77
2023/07/01 02:14:23;;;;;;;13.80;12.00;;;;;;;18.83;100.00;98115.77;109479;1253;66070;-77
2023/07/01 02:16:50;;;;;;;14.20;11.40;;;;;;;18.82;100.00;98128.95;109470;1252;60583;-77
2023/07/01 02:19:17;;;;;;;15.00;12.80;;;;;;;18.81;100.00;98134.67;109480;1253;63346;-76
2023/07/01 02:21:43;;;;;;;16.00;13.20;;;;;;;18.79;100.00;98139.27;109361;1253;59060;-77
2023/07/01 02:24:10;;;;;;;21.10;16.70;;;;;;;18.75;100.00;98140.25;109511;1252;58875;-77
2023/07/01 02:26:36;;;;;;;19.10;16.90;;;;;;;18.73;100.00;98135.95;109445;1253;66049;-76
2023/07/01 02:29:03;;;;;;;19.20;17.20;;;;;;;18.66;100.00;98140.48;109436;1253;59407;-75
2023/07/01 02:31:30;;;;;;;19.40;17.50;;;;;;;18.58;100.00;98138.70;109463;1252;63880;-74
2023/07/01 02:34:00;;;;;;;21.20;18.10;;;;;;;18.52;100.00;98134.35;109492;1253;59044;-74
2023/07/01 02:36:27;;;;;;;21.70;17.50;;;;;;;18.45;100.00;98139.44;109304;1253;59076;-75
2023/07/01 02:38:54;;;;;;;17.90;16.00;;;;;;;18.41;100.00;98148.59;109469;1252;65747;-74
2023/07/01 02:41:20;;;;;;;18.90;16.40;;;;;;;18.36;100.00;98154.04;109481;1252;59380;-75
2023/07/01 02:43:47;;;;;;;17.80;15.80;;;;;;;18.31;100.00;98153.85;109259;1252;63649;-75
2023/07/01 02:46:13;;;;;;;18.70;16.80;;;;;;;18.29;100.00;98155.68;109392;1253;59014;-74
2023/07/01 02:48:40;;;;;;;20.60;16.90;;;;;;;18.28;100.00;98147.48;109462;1253;58950;-74
2023/07/01 02:51:07;;;;;;;18.60;16.60;;;;;;;18.24;100.00;98139.00;109458;1252;59055;-74
2023/07/01 02:53:33;;;;;;;22.00;19.60;;;;;;;18.17;100.00;98134.06;109339;1254;59093;-74
2023/07/01 02:56:02;;;;;;;21.20;19.10;;;;;;;18.11;100.00;98129.31;109460;1253;59456;-74
2023/07/01 02:58:28;;;;;;;22.50;20.10;;;;;;;18.06;100.00;98125.36;109431;1252;59038;-74
2023/07/01 03:00:55;;;;;;;23.90;21.70;;;;;;;18.03;100.00;98122.53;109416;1252;59391;-75
2023/07/01 03:03:23;;;;;;;25.00;22.60;;;;;;;17.98;100.00;98118.66;109467;1252;59343;-75
2023/07/01 03:05:49;;;;;;;24.60;22.10;;;;;;;17.95;100.00;98117.19;109540;1252;58992;-75
2023/07/01 03:08:16;;;;;;;23.80;21.40;;;;;;;17.93;100.00;98121.27;109441;1252;59018;-75
2023/07/01 03:10:42;;;;;;;23.20;21.00;;;;;;;17.89;100.00;98129.25;109442;1252;58972;-74
2023/07/01 03:13:08;;;;;;;24.80;22.40;;;;;;;17.84;100.00;98133.33;109468;1252;59092;-74
2023/07/01 03:15:35;;;;;;;22.60;20.40;;;;;;;17.82;100.00;98131.11;109476;1252;58956;-74
2023/07/01 03:18:02;;;;;;;23.60;21.20;;;;;;;17.79;100.00;98129.42;109430;1252;58980;-74
2023/07/01 03:20:29;;;;;;;24.10;21.80;;;;;;;17.77;100.00;98132.84;109460;1252;63765;-75
2023/07/01 03:22:56;;;;;;;22.80;20.70;;;;;;;17.77;100.00;98135.00;109404;1252;58933;-75
2023/07/01 03:25:24;;;;;;;24.20;22.10;;;;;;;17.77;100.00;98131.61;109470;1252;58945;-75
2023/07/01 03:27:52;;;;;;;22.60;20.70;;;;;;;17.77;100.00;98127.62;109425;1252;64521;-75
2023/07/01 03:30:22;;;;;;;21.30;17.90;;;;;;;17.79;100.00;98125.69;109286;1253;60174;-74
2023/07/01 03:32:48;;;;;;;19.70;17.90;;;;;;;17.76;100.00;98121.96;109145;1253;62765;-74
2023/07/01 03:35:15;;;;;;;18.00;16.20;;;;;;;17.73;100.00;98121.46;109453;1252;59607;-74
2023/07/01 03:37:43;;;;;;;20.00;18.10;;;;;;;17.67;100.00;98122.68;109495;1252;59036;-73
2023/07/01 03:40:10;;;;;;;21.10;19.00;;;;;;;17.62;100.00;98123.55;109471;1253;66150;-73
2023/07/01 03:42:38;;;;;;;22.20;20.20;;;;;;;17.59;100.00;98124.80;109425;1252;59432;-73
2023/07/01 03:45:06;;;;;;;21.50;19.70;;;;;;;17.55;100.00;98133.82;109430;1253;62645;-73
2023/07/01 03:47:32;;;;;;;23.20;20.90;;;;;;;17.53;100.00;98139.44;109405;1252;58958;-73
2023/07/01 03:49:59;;;;;;;26.30;24.00;;;;;;;17.52;100.00;98140.75;109463;1252;59483;-74
2023/07/01 03:52:25;;;;;;;26.50;24.00;;;;;;;17.52;100.00;98137.56;109483;1252;59379;-74
2023/07/01 03:54:51;;;;;;;24.90;22.70;;;;;;;17.51;100.00;98131.60;109473;1252;59023;-74
2023/07/01 03:57:18;;;;;;;26.70;24.30;;;;;;;17.52;100.00;98133.59;109478;1252;64170;-74
2023/07/01 03:59:44;;;;;;;26.00;23.40;;;;;;;17.55;100.00;98139.17;109458;1252;58957;-73
2023/07/01 04:02:11;;;;;;;24.10;21.80;;;;;;;17.58;100.00;98137.12;109465;1252;58965;-74
2023/07/01 04:04:38;;;;;;;24.00;21.80;;;;;;;17.58;100.00;98132.46;109474;1252;66008;-74
2023/07/01 04:07:05;;;;;;;22.60;20.60;;;;;;;17.55;100.00;98131.09;109507;1252;60126;-74
2023/07/01 04:09:31;;;;;;;24.70;22.60;;;;;;;17.53;100.00;98131.54;109419;1252;64538;-74
2023/07/01 04:11:58;;;;;;;23.70;21.60;;;;;;;17.51;100.00;98135.35;109465;1252;59293;-74
2023/07/01 04:14:24;;;;;;;26.00;23.80;;;;;;;17.52;100.00;98137.60;109453;1252;59182;-73
2023/07/01 04:16:51;;;;;;;26.70;24.30;;;;;;;17.53;100.00;98139.80;109425;1252;66201;-73
2023/07/01 04:19:18;;;;;;;25.10;22.90;;;;;;;17.54;100.00;98141.88;109429;1252;59036;-73
2023/07/01 04:21:44;;;;;;;26.50;24.10;;;;;;;17.57;100.00;98144.63;109458;1251;58997;-73
2023/07/01 04:24:11;;;;;;;24.40;22.30;;;;;;;17.61;100.00;98142.48;109451;1252;59076;-73
2023/07/01 04:26:37;;;;;;;24.40;22.50;;;;;;;17.67;100.00;98146.18;109452;1252;59011;-74
2023/07/01 04:29:04;;;;;;;24.10;22.10;;;;;;;17.70;100.00;98147.21;109423;1252;64899;-74
2023/07/01 04:31:30;;;;;;;23.90;22.00;;;;;;;17.71;100.00;98144.41;109326;1253;59061;-74
2023/07/01 04:33:57;;;;;;;23.00;21.20;;;;;;;17.70;100.00;98144.63;109450;1252;62814;-74
2023/07/01 04:36:23;;;;;;;23.00;21.00;;;;;;;17.67;100.00;98143.46;109250;1253;59072;-74
2023/07/01 04:38:50;;;;;;;24.10;22.10;;;;;;;17.64;100.00;98144.51;109452;1251;59037;-73
2023/07/01 04:41:16;;;;;;;23.70;22.00;;;;;;;17.60;100.00;98141.00;109456;1252;58900;-73
2023/07/01 04:43:43;;;;;;;24.50;22.60;;;;;;;17.56;100.00;98135.51;109478;1252;58975;-73
2023/07/01 04:46:10;;;;;;;26.00;23.80;;;;;;;17.53;100.00;98137.59;109269;1252;64332;-74
2023/07/01 04:48:36;;;;;;;22.40;20.50;;;;;;;17.51;100.00;98143.73;109453;1253;59441;-74
2023/07/01 04:51:03;;;;;;;23.70;21.80;;;;;;;17.50;100.00;98147.36;109465;1252;59045;-74
2023/07/01 04:53:29;;;;;;;22.00;20.30;;;;;;;17.51;100.00;98152.91;109477;1252;59035;-74
2023/07/01 04:55:56;;;;;;;23.80;21.90;;;;;;;17.53;100.00;98154.73;109475;1252;59195;-74
2023/07/01 04:58:22;;;;;;;23.30;21.50;;;;;;;17.55;100.00;98152.45;109511;1252;58985;-74
2023/07/01 05:00:50;;;;;;;22.90;20.90;;;;;;;17.60;100.00;98151.40;109433;1252;59079;-74
2023/07/01 05:03:16;;;;;;;22.80;21.00;;;;;;;17.64;100.00;98151.69;109456;1252;58870;-74
2023/07/01 05:05:43;;;;;;;23.50;21.50;;;;;;;17.67;100.00;98156.77;109461;1252;75056;-74
2023/07/01 05:08:09;;;;;;;22.50;20.70;;;;;;;17.68;100.00;98153.39;109481;1252;60170;-74
2023/07/01 05:10:36;;;;;;;21.20;19.30;;;;;;;17.71;100.00;98153.28;109445;1252;59020;-74
2023/07/01 05:13:02;;;;;;;21.10;19.30;;;;;;;17.72;100.00;98153.92;109426;1252;59206;-74
2023/07/01 05:15:30;;;;;;;21.10;19.50;;;;;;;17.72;100.00;98148.30;109444;1252;59047;-75
2023/07/01 05:17:56;;;;;;;21.90;20.20;;;;;;;17.74;100.00;98151.69;109335;1253;65722;-73
2023/07/01 05:20:23;;;;;;;22.60;20.70;;;;;;;17.77;100.00;98156.02;109481;1252;60144;-74
2023/07/01 05:22:49;;;;;;;21.70;20.10;;;;;;;17.79;100.00;98154.61;109482;1252;58990;-74
2023/07/01 05:25:16;;;;;;;22.90;21.20;;;;;;;17.79;100.00;98154.61;109459;1252;58967;-74
2023/07/01 05:27:42;;;;;;;22.50;20.90;;;;;;;17.78;100.00;98160.27;109463;1252;58923;-74
2023/07/01 05:30:09;;;;;;;24.00;22.30;;;;;;;17.77;100.00;98160.10;109473;1252;65135;-74
2023/07/01 05:32:36;;;;;;;25.60;23.70;;;;;;;17.81;100.00;98156.75;109519;1252;60354;-74
2023/07/01 05:35:02;;;;;;;28.70;26.70;;;;;;;17.85;100.00;98154.70;109446;1252;64034;-74
2023/07/01 05:37:29;;;;;;;29.30;27.10;;;;;;;17.89;100.00;98159.37;109481;1252;58978;-74
2023/07/01 05:39:55;;;;;;;31.40;29.00;;;;;;;17.92;100.00;98151.15;109486;1252;58871;-74
2023/07/01 05:42:22;;;;;;;24.70;22.80;;;;;;;17.92;100.00;98154.58;109480;1252;59361;-74
2023/07/01 05:44:48;;;;;;;26.00;23.90;;;;;;;17.91;100.00;98152.38;109462;1252;60066;-74
2023/07/01 05:47:15;;;;;;;22.30;20.50;;;;;;;17.93;100.00;98156.65;109446;1252;59167;-74
2023/07/01 05:49:42;;;;;;;20.50;18.70;;;;;;;17.96;100.00;98154.90;109248;1252;59156;-74
2023/07/01 05:52:08;;;;;;;20.40;18.70;;;;;;;18.00;100.00;98154.25;109468;1252;58862;-74
2023/07/01 05:54:35;;;;;;;19.40;17.80;;;;;;;18.03;100.00;98155.80;109456;1252;64484;-74
2023/07/01 05:57:01;;;;;;;20.40;18.70;;;;;;;18.01;100.00;98155.36;109515;1252;58977;-74
2023/07/01 05:59:28;;;;;;;18.90;17.40;;;;;;;18.01;100.00;98156.30;109496;1252;64149;-74
2023/07/01 06:01:54;;;;;;;20.50;19.00;;;;;;;18.04;100.00;98156.40;109469;1252;59127;-74
2023/07/01 06:04:21;;;;;;;21.00;19.40;;;;;;;18.06;100.00;98160.75;109483;1252;58979;-75
2023/07/01 06:06:47;;;;;;;18.20;16.80;;;;;;;18.09;100.00;98158.51;109485;1252;66941;-74
2023/07/01 06:09:16;;;;;;;17.10;15.80;;;;;;;18.10;100.00;98158.92;109483;1252;59333;-75
2023/07/01 06:11:42;;;;;;;17.10;15.90;;;;;;;18.12;100.00;98157.96;109487;1252;64021;-75
2023/07/01 06:14:09;;;;;;;16.40;15.10;;;;;;;18.15;100.00;98157.73;109489;1252;59062;-75
2023/07/01 06:16:37;;;;;;;15.30;14.20;;;;;;;18.21;100.00;98159.07;109280;1253;59014;-75
2023/07/01 06:19:03;;;;;;;15.10;13.90;;;;;;;18.27;100.00;98162.63;109511;1252;65733;-75
2023/07/01 06:21:30;;;;;;;15.30;14.20;;;;;;;18.30;100.00;98163.26;109517;1252;60175;-75
2023/07/01 06:23:57;;;;;;;15.30;14.10;;;;;;;18.34;100.00;98165.34;109456;1252;64082;-75
2023/07/01 06:26:23;;;;;;;14.30;13.30;;;;;;;18.38;100.00;98167.84;109464;1252;59308;-75
2023/07/01 06:28:50;;;;;;;14.20;13.10;;;;;;;18.42;100.00;98170.25;109493;1252;59204;-75
2023/07/01 06:31:16;;;;;;;14.30;13.00;;;;;;;18.46;100.00;98171.38;109454;1252;65704;-75
2023/07/01 06:33:45;;;;;;;14.20;13.20;;;;;;;18.50;100.00;98171.33;109470;1252;59087;-76
2023/07/01 06:36:12;;;;;;;14.10;13.10;;;;;;;18.53;100.00;98172.04;109154;1253;63881;-75
2023/07/01 06:38:40;;;;;;;13.30;12.40;;;;;;;18.56;100.00;98171.55;109277;1252;59117;-75
2023/07/01 06:41:07;;;;;;;13.80;12.60;;;;;;;18.56;100.00;98170.60;109483;1252;58936;-76
2023/07/01 06:43:37;;;;;;;13.30;12.40;;;;;;;18.56;100.00;98169.18;109273;1252;59401;-76
2023/07/01 06:46:03;;;;;;;;;;;;;;;18.57;100.00;98174.65;109566;1252;59885;-75
2023/07/01 06:48:30;;;;;;;14.80;13.60;;;;;;;18.55;100.00;98177.38;109478;1252;59043;-76
2023/07/01 06:50:56;;;;;;;14.30;13.20;;;;;;;18.54;100.00;98178.80;109281;1253;59015;-76
2023/07/01 06:53:23;;;;;;;12.80;11.70;;;;;;;18.56;100.00;98180.02;109415;1254;59019;-76
2023/07/01 06:55:49;;;;;;;13.50;12.40;;;;;;;18.56;100.00;98183.59;109483;1252;59065;-76
2023/07/01 06:58:16;;;;;;;14.20;13.10;;;;;;;18.55;100.00;98180.84;109497;1252;58991;-76
2023/07/01 07:00:43;;;;;;;13.80;12.60;;;;;;;18.56;100.00;98179.77;109535;1252;58980;-76
2023/07/01 07:03:10;;;;;;;13.50;12.40;;;;;;;18.59;100.00;98178.52;109527;1252;58970;-76
2023/07/01 07:05:36;;;;;;;13.00;11.90;;;;;;;18.64;100.00;98180.66;109381;1253;58958;-76
2023/07/01 07:08:03;;;;;;;14.10;12.90;;;;;;;18.71;100.00;98178.69;109509;1252;59932;-77
2023/07/01 07:10:30;;;;;;;12.70;11.70;;;;;;;18.80;100.00;98181.23;109515;1252;58993;-76
2023/07/01 07:12:56;;;;;;;13.60;12.50;;;;;;;18.88;100.00;98182.54;109480;1252;62720;-77
2023/07/01 07:15:22;;;;;;;13.00;11.90;;;;;;;18.96;100.00;98182.16;109497;1252;59006;-77
2023/07/01 07:17:49;;;;;;;12.10;11.10;;;;;;;19.01;100.00;98180.78;109532;1252;58873;-77
2023/07/01 07:20:15;;;;;;;12.50;11.50;;;;;;;19.05;100.00;98178.52;109460;1252;59074;-77
2023/07/01 07:22:42;;;;;;;12.50;11.50;;;;;;;19.10;100.00;98177.60;109460;1252;59062;-76
2023/07/01 07:25:16;;;;;;;11.80;10.90;;;;;;;19.11;100.00;98176.81;109477;1252;59005;-77
2023/07/01 07:27:46;;;;;;;12.00;11.10;;;;;;;19.12;100.00;98179.62;109458;1252;59033;-76
2023/07/01 07:30:14;;;;;;;11.10;10.20;;;;;;;19.14;100.00;98176.25;109527;1252;61527;-77
2023/07/01 07:32:42;;;;;;;11.10;10.40;;;;;;;19.13;100.00;98176.02;109444;1253;64531;-77
2023/07/01 07:35:09;;;;;;;11.90;11.10;;;;;;;19.13;100.00;98176.57;109525;1252;60184;-76
2023/07/01 07:37:36;;;;;;;12.20;11.40;;;;;;;19.15;100.00;98177.54;109503;1252;62746;-76
2023/07/01 07:40:05;;;;;;;11.30;10.50;;;;;;;19.22;100.00;98177.52;109480;1252;58978;-76
2023/07/01 07:42:31;;;;;;;12.10;11.20;;;;;;;19.27;100.00;98181.71;109529;1252;58894;-78
2023/07/01 07:44:58;;;;;;;11.30;10.40;;;;;;;19.37;100.00;98179.39;109506;1251;65707;-76
2023/07/01 07:47:25;;;;;;;10.80;10.00;;;;;;;19.48;100.00;98176.12;109511;1252;59082;-77
2023/07/01 07:49:51;;;;;;;11.70;10.70;;;;;;;19.56;100.00;98178.09;109508;1252;64054;-77
2023/07/01 07:52:18;;;;;;;11.10;10.20;;;;;;;19.62;100.00;98173.79;109506;1252;59116;-77
2023/07/01 07:54:46;;;;;;;10.10;9.40;;;;;;;19.76;100.00;98169.65;109495;1251;58873;-76
2023/07/01 07:57:13;;;;;;;10.60;9.90;;;;;;;20.03;100.00;98169.08;109444;1252;64890;-77
2023/07/01 07:59:41;;;;;;;10.00;9.30;;;;;;;20.40;100.00;98163.45;109411;1253;61045;-76
2023/07/01 08:02:08;;;;;;;8.80;8.20;;;;;;;20.81;100.00;98150.80;109523;1252;62497;-76
2023/07/01 08:04:35;;;;;;;9.40;8.70;;;;;;;21.27;100.00;98151.94;109478;1253;59008;-76
2023/07/01 08:07:02;;;;;;;8.90;8.10;;;;;;;21.78;100.00;98150.34;109510;1251;59079;-77
2023/07/01 08:09:29;;;;;;;8.40;7.80;;;;;;;22.15;100.00;98146.14;109516;1253;66055;-76
2023/07/01 08:11:59;;;;;;;8.50;7.80;;;;;;;22.42;100.00;98143.52;109514;1252;59861;-76
2023/07/01 08:14:26;;;;;;;8.10;7.50;;;;;;;22.83;100.00;98144.16;109563;1252;63851;-77
2023/07/01 08:16:58;;;;;;;8.40;7.70;;;;;;;23.29;100.00;98145.90;109475;1252;58969;-77
2023/07/01 08:19:25;;;;;;;8.60;8.00;;;;;;;23.41;100.00;98145.21;109518;1252;58973;-76
2023/07/01 08:21:53;;;;;;;8.00;7.40;;;;;;;23.36;100.00;98145.58;109521;1252;66049;-77
2023/07/01 08:24:21;;;;;;;7.80;7.30;;;;;;;23.39;100.00;98144.80;109520;1251;59044;-78
2023/07/01 08:26:48;;;;;;;7.70;7.10;;;;;;;23.64;100.00;98147.83;109497;1253;62853;-77
2023/07/01 08:29:15;;;;;;;6.50;6.10;;;;;;;23.80;100.00;98149.79;109511;1252;59046;-77
2023/07/01 08:31:41;;;;;;;7.40;6.70;;;;;;;23.92;100.00;98147.86;109492;1252;58994;-76
2023/07/01 08:34:08;;;;;;;7.40;6.90;;;;;;;24.32;100.00;98146.93;109564;1252;66730;-78
2023/07/01 08:36:34;;;;;;;7.10;6.60;;;;;;;24.90;100.00;98144.78;109532;1252;59151;-77
2023/07/01 08:39:02;;;;;;;7.00;6.50;;;;;;;25.28;100.00;98146.36;109468;1252;59048;-76
2023/07/01 08:41:34;;;;;;;7.30;6.70;;;;;;;25.39;100.00;98148.55;109518;1252;59197;-76
2023/07/01 08:44:01;;;;;;;7.90;7.20;;;;;;;25.39;100.00;98149.38;109352;1253;59433;-76
2023/07/01 08:46:28;;;;;;;7.20;6.70;;;;;;;25.24;100.00;98145.75;109457;1252;65864;-76
2023/07/01 08:48:56;;;;;;;6.90;6.40;;;;;;;25.10;100.00;98148.31;109427;1252;59886;-76
2023/07/01 08:51:28;;;;;;;6.70;6.20;;;;;;;25.03;100.00;98145.91;109519;1252;64385;-76
2023/07/01 08:53:58;;;;;;;6.70;6.20;;;;;;;25.01;100.00;98142.90;109519;1252;59059;-76
2023/07/01 08:56:25;;;;;;;7.20;6.70;;;;;;;24.93;100.00;98146.20;109537;1252;58871;-76
2023/07/01 08:58:52;;;;;;;5.90;5.50;;;;;;;25.02;100.00;98142.98;109542;1252;66079;-77
2023/07/01 09:01:18;;;;;;;6.50;5.90;;;;;;;25.28;100.00;98136.36;109515;1252;60216;-77
2023/07/01 09:03:52;;;;;;;6.90;6.30;;;;;;;25.52;100.00;98136.15;109509;1252;63746;-76
2023/07/01 09:06:20;;;;;;;6.50;6.00;;;;;;;25.74;100.00;98132.77;109502;1251;58973;-78
2023/07/01 09:08:46;;;;;;;6.70;6.20;;;;;;;25.97;100.00;98128.38;109581;1251;58945;-78
2023/07/01 09:11:15;;;;;;;6.20;5.70;;;;;;;26.22;100.00;98126.35;109541;1253;65836;-77
2023/07/01 09:13:43;;;;;;;6.10;5.60;;;;;;;26.56;100.00;98120.48;109489;1253;59011;-76
2023/07/01 09:16:10;;;;;;;6.00;5.50;;;;;;;26.95;100.00;98122.67;109505;1252;62803;-76
2023/07/01 09:18:38;;;;;;;6.40;5.90;;;;;;;27.19;100.00;98123.06;109243;1252;59014;-76
2023/07/01 09:21:17;;;;;;;6.40;5.90;;;;;;;27.23;100.00;98127.18;109496;1252;58908;-76
2023/07/01 09:23:43;;;;;;;6.50;5.80;;;;;;;27.23;100.00;98131.05;109532;1252;64491;-76
2023/07/01 09:26:10;;;;;;;6.60;6.10;;;;;;;27.25;100.00;98127.98;109533;1253;60252;-77
2023/07/01 09:28:38;;;;;;;6.10;5.60;;;;;;;27.30;100.00;98124.95;109495;1253;64707;-78
2023/07/01 09:31:08;;;;;;;7.30;6.70;;;;;;;27.48;100.00;98127.89;109474;1253;59123;-78
2023/07/01 09:33:35;;;;;;;5.70;5.30;;;;;;;27.45;100.00;98129.69;109496;1253;58995;-91
2023/07/01 09:36:03;;;;;;;7.10;6.50;;;;;;;27.16;100.00;98133.19;109472;1252;66061;-76
2023/07/01 09:38:32;;;;;;;6.70;6.10;;;;;;;27.07;100.00;98133.46;109356;1253;142843;-83
2023/07/01 09:41:17;;;;;;;6.70;6.20;;;;;;;27.15;100.00;98135.55;109503;1253;64063;-82
2023/07/01 09:43:43;;;;;;;6.40;5.90;;;;;;;27.06;100.00;98132.47;109353;1256;59432;-79
2023/07/01 09:46:10;;;;;;;6.20;5.80;;;;;;;26.91;100.00;98127.83;109478;1253;59041;-81
2023/07/01 09:48:36;;;;;;;7.20;6.60;;;;;;;26.96;100.00;98124.20;109209;1253;66072;-79
2023/07/01 09:51:04;;;;;;;6.80;6.40;;;;;;;26.96;100.00;98126.64;109510;1252;58989;-80
2023/07/01 09:53:33;;;;;;;6.70;6.20;;;;;;;26.97;100.00;98125.91;109494;1252;63029;-81
2023/07/01 09:56:04;;;;;;;6.90;6.40;;;;;;;26.99;100.00;98120.95;109416;1252;59147;-78
2023/07/01 09:58:31;;;;;;;6.50;6.00;;;;;;;27.04;100.00;98120.76;109411;1253;59108;-80
2023/07/01 10:00:59;;;;;;;6.80;6.30;;;;;;;26.92;100.00;98120.31;109487;1252;66037;-80
2023/07/01 10:03:27;;;;;;;7.10;6.60;;;;;;;26.84;100.00;98119.70;109458;1253;59170;-83
2023/07/01 10:05:54;;;;;;;7.10;6.60;;;;;;;26.92;100.00;98120.52;109477;1253;64020;-79
2023/07/01 10:08:22;;;;;;;8.10;7.50;;;;;;;27.03;100.00;98115.38;109126;1253;59068;-77
2023/07/01 10:11:03;;;;;;;7.30;6.80;;;;;;;27.14;100.00;98109.40;109204;1253;59082;-79
2023/07/01 10:13:33;;;;;;;8.70;8.10;;;;;;;27.38;100.00;98106.35;109443;1253;64821;-82
2023/07/01 10:16:02;;;;;;;8.40;7.70;;;;;;;27.51;100.00;98104.52;109523;1253;60163;-79
2023/07/01 10:18:30;;;;;;;8.00;7.40;;;;;;;27.67;100.00;98101.90;109436;1253;63321;-81
2023/07/01 10:21:24;;;;;;;7.30;6.80;;;;;;;27.93;100.00;98098.41;109461;1251;59086;-84
2023/07/01 10:23:52;;;;;;;8.50;7.70;;;;;;;28.02;100.00;98099.89;109431;1252;59080;-79
2023/07/01 10:26:32;;;;;;;9.90;9.10;;;;;;;28.02;100.00;98096.48;109439;1252;66008;-79
2023/07/01 10:28:59;;;;;;;8.30;7.70;;;;;;;28.11;100.00;98097.85;109471;1252;60008;-76
2023/07/01 10:31:26;;;;;;;8.10;7.50;;;;;;;28.21;100.00;98096.17;109462;1252;64049;-77
2023/07/01 10:33:53;;;;;;;8.20;7.50;;;;;;;28.31;100.00;98093.73;109483;1253;59049;-77
2023/07/01 10:36:20;;;;;;;8.40;7.80;;;;;;;28.47;100.00;98090.81;109505;1253;58976;-76
2023/07/01 10:38:46;;;;;;;8.10;7.50;;;;;;;28.73;100.00;98089.45;109471;1253;66054;-76
2023/07/01 10:41:13;;;;;;;9.40;8.50;;;;;;;28.95;100.00;98083.59;109503;1252;58987;-77
2023/07/01 10:43:40;;;;;;;8.00;7.50;;;;;;;28.99;100.00;98076.83;109513;1253;62554;-76
2023/07/01 10:46:19;;;;;;;7.50;6.90;;;;;;;28.83;100.00;98080.33;109488;1253;59065;-77
2023/07/01 10:49:04;;;;;;;8.20;7.70;;;;;;;28.68;100.00;98081.50;109501;1252;58970;-78
2023/07/01 10:51:45;;;;;;;8.20;7.60;;;;;;;28.51;100.00;98080.20;109508;1252;66234;-76
2023/07/01 10:54:12;;;;;;;7.90;7.40;;;;;;;28.37;100.00;98077.35;109529;1253;59550;-76
2023/07/01 10:57:01;;;;;;;8.60;7.90;;;;;;;28.25;100.00;98077.47;109213;1253;64349;-76
2023/07/01 10:59:29;;;;;;;8.80;8.20;;;;;;;27.87;100.00;98075.58;109542;1252;59114;-77
2023/07/01 11:01:57;;;;;;;8.20;7.60;;;;;;;27.56;100.00;98077.16;109526;1253;58792;-77
2023/07/01 11:04:24;;;;;;;8.70;8.10;;;;;;;27.28;100.00;98076.91;109489;1252;67032;-78
2023/07/01 11:06:55;;;;;;;9.10;8.50;;;;;;;27.08;100.00;98074.27;109550;1252;59024;-78
2023/07/01 11:09:32;;;;;;;9.10;8.30;;;;;;;26.98;100.00;98069.92;109523;1253;64231;-77
2023/07/01 11:12:01;;;;;;;8.80;8.20;;;;;;;27.02;100.00;98063.80;109518;1253;59388;-78